BEL35A EDDF-EBBR
Flight info
| Callsign | BEL35A |
|---|---|
| Flight time | 0h 37m |
| Altitude | 22000 |
| Route | SOBRA2L/18 SOBRA Y180 BITBU Y181 GOPAS N852 LNO |
| Aircraft | A320/M-SDE3FGHIRWY/LB1 |
Departure
| Time | 2026-05-06 15:34 |
|---|---|
| Airport | Frankfurt Main Airport (EDDF) |
Arrival
| Time | 2026-05-06 16:12 |
|---|---|
| Airport | Brussels Airport (EBBR) |
| Time | Latitude | Longitude | Altitude | Speed | Heading |
|---|---|---|---|---|---|
| 2026-05-06 15:00 | 50.03836 | 8.54698 | 345 ft | 0 kts | 160° |
| 2026-05-06 15:27 | 50.03835 | 8.54699 | 344 ft | 1 kts | 160° |
| 2026-05-06 15:28 | 50.03810 | 8.54713 | 357 ft | 5 kts | 160° |
| 2026-05-06 15:28 | 50.03769 | 8.54722 | 355 ft | 10 kts | 195° |
| 2026-05-06 15:28 | 50.03733 | 8.54627 | 359 ft | 11 kts | 250° |
| 2026-05-06 15:28 | 50.03702 | 8.54500 | 358 ft | 16 kts | 249° |
| 2026-05-06 15:29 | 50.03657 | 8.54308 | 356 ft | 20 kts | 249° |
| 2026-05-06 15:29 | 50.03609 | 8.54107 | 352 ft | 20 kts | 250° |
| 2026-05-06 15:29 | 50.03560 | 8.53904 | 353 ft | 20 kts | 249° |
| 2026-05-06 15:29 | 50.03511 | 8.53698 | 356 ft | 21 kts | 250° |
| 2026-05-06 15:30 | 50.03460 | 8.53484 | 357 ft | 21 kts | 250° |
| 2026-05-06 15:30 | 50.03408 | 8.53269 | 350 ft | 20 kts | 251° |
| 2026-05-06 15:30 | 50.03360 | 8.53067 | 358 ft | 20 kts | 250° |
| 2026-05-06 15:30 | 50.03319 | 8.52899 | 356 ft | 14 kts | 249° |
| 2026-05-06 15:31 | 50.03293 | 8.52784 | 355 ft | 9 kts | 250° |
| 2026-05-06 15:31 | 50.03284 | 8.52748 | 358 ft | 0 kts | 249° |
| 2026-05-06 15:32 | 50.03265 | 8.52668 | 352 ft | 10 kts | 249° |
| 2026-05-06 15:32 | 50.03229 | 8.52593 | 353 ft | 8 kts | 198° |
| 2026-05-06 15:32 | 50.03195 | 8.52594 | 352 ft | 1 kts | 177° |
| 2026-05-06 15:32 | 50.03194 | 8.52594 | 352 ft | 0 kts | 177° |
| 2026-05-06 15:33 | 50.03193 | 8.52594 | 352 ft | 1 kts | 177° |
| 2026-05-06 15:33 | 50.03061 | 8.52595 | 351 ft | 52 kts | 180° |
| 2026-05-06 15:34 | 50.02463 | 8.52601 | 351 ft | 117 kts | 179° |
| 2026-05-06 15:34 | 50.01468 | 8.52612 | 358 ft | 167 kts | 179° |
| 2026-05-06 15:34 | 50.00269 | 8.52641 | 845 ft | 172 kts | 181° |
| 2026-05-06 15:34 | 49.99072 | 8.52706 | 1579 ft | 172 kts | 182° |
| 2026-05-06 15:35 | 49.97880 | 8.52787 | 2381 ft | 172 kts | 182° |
| 2026-05-06 15:35 | 49.96680 | 8.52864 | 3158 ft | 172 kts | 181° |
| 2026-05-06 15:35 | 49.95476 | 8.52944 | 3785 ft | 180 kts | 181° |
| 2026-05-06 15:35 | 49.94150 | 8.53025 | 4118 ft | 202 kts | 181° |
| 2026-05-06 15:36 | 49.92660 | 8.53119 | 4548 ft | 224 kts | 181° |
| 2026-05-06 15:36 | 49.91076 | 8.53224 | 5382 ft | 230 kts | 181° |
| 2026-05-06 15:36 | 49.89466 | 8.53334 | 6274 ft | 233 kts | 180° |
| 2026-05-06 15:36 | 49.87842 | 8.53422 | 7035 ft | 235 kts | 185° |
| 2026-05-06 15:37 | 49.86223 | 8.52897 | 7548 ft | 248 kts | 201° |
| 2026-05-06 15:37 | 49.84529 | 8.51956 | 7967 ft | 266 kts | 201° |
| 2026-05-06 15:37 | 49.82770 | 8.50952 | 8706 ft | 272 kts | 202° |
| 2026-05-06 15:37 | 49.80980 | 8.49927 | 9537 ft | 276 kts | 201° |
| 2026-05-06 15:38 | 49.79154 | 8.48883 | 10130 ft | 288 kts | 202° |
| 2026-05-06 15:38 | 49.77393 | 8.47227 | 10355 ft | 309 kts | 225° |
| 2026-05-06 15:38 | 49.76243 | 8.44407 | 10741 ft | 323 kts | 252° |
| 2026-05-06 15:38 | 49.76038 | 8.40935 | 11391 ft | 332 kts | 277° |
| 2026-05-06 15:39 | 49.76552 | 8.37424 | 12130 ft | 336 kts | 282° |
| 2026-05-06 15:39 | 49.77123 | 8.33906 | 12873 ft | 339 kts | 282° |
| 2026-05-06 15:39 | 49.77704 | 8.30356 | 13564 ft | 343 kts | 282° |
| 2026-05-06 15:39 | 49.78294 | 8.26753 | 14159 ft | 347 kts | 283° |
| 2026-05-06 15:40 | 49.78886 | 8.23110 | 14807 ft | 351 kts | 282° |
| 2026-05-06 15:40 | 49.79479 | 8.19424 | 15433 ft | 355 kts | 282° |
| 2026-05-06 15:40 | 49.80076 | 8.15693 | 16149 ft | 359 kts | 282° |
| 2026-05-06 15:40 | 49.80678 | 8.11906 | 16835 ft | 364 kts | 282° |
| 2026-05-06 15:41 | 49.81286 | 8.08083 | 17510 ft | 367 kts | 282° |
| 2026-05-06 15:41 | 49.81901 | 8.04207 | 18128 ft | 372 kts | 282° |
| 2026-05-06 15:41 | 49.82520 | 8.00306 | 18650 ft | 375 kts | 282° |
| 2026-05-06 15:41 | 49.83145 | 7.96374 | 19189 ft | 378 kts | 282° |
| 2026-05-06 15:42 | 49.83774 | 7.92403 | 19714 ft | 381 kts | 281° |
| 2026-05-06 15:42 | 49.84402 | 7.88407 | 20252 ft | 384 kts | 282° |
| 2026-05-06 15:42 | 49.85029 | 7.84371 | 20786 ft | 387 kts | 282° |
| 2026-05-06 15:42 | 49.85661 | 7.80294 | 21335 ft | 390 kts | 281° |
| 2026-05-06 15:43 | 49.86297 | 7.76194 | 21707 ft | 393 kts | 281° |
| 2026-05-06 15:43 | 49.87125 | 7.72167 | 21801 ft | 395 kts | 294° |
| 2026-05-06 15:43 | 49.88514 | 7.68499 | 21798 ft | 393 kts | 300° |
| 2026-05-06 15:43 | 49.89970 | 7.64915 | 21797 ft | 392 kts | 300° |
| 2026-05-06 15:44 | 49.91436 | 7.61338 | 21800 ft | 392 kts | 301° |
| 2026-05-06 15:44 | 49.92898 | 7.57771 | 21802 ft | 392 kts | 300° |
| 2026-05-06 15:44 | 49.94359 | 7.54192 | 21802 ft | 392 kts | 301° |
| 2026-05-06 15:44 | 49.95816 | 7.50610 | 21804 ft | 391 kts | 300° |
| 2026-05-06 15:45 | 49.97265 | 7.47037 | 21831 ft | 389 kts | 300° |
| 2026-05-06 15:45 | 49.98689 | 7.43517 | 21834 ft | 389 kts | 300° |
| 2026-05-06 15:45 | 50.00123 | 7.39962 | 21836 ft | 388 kts | 300° |
| 2026-05-06 15:45 | 50.01552 | 7.36406 | 21836 ft | 388 kts | 300° |
| 2026-05-06 15:46 | 50.02982 | 7.32849 | 21838 ft | 387 kts | 300° |
| 2026-05-06 15:46 | 50.04410 | 7.29296 | 21842 ft | 387 kts | 300° |
| 2026-05-06 15:46 | 50.05837 | 7.25748 | 21834 ft | 386 kts | 300° |
| 2026-05-06 15:46 | 50.07261 | 7.22201 | 21834 ft | 386 kts | 300° |
| 2026-05-06 15:47 | 50.08684 | 7.18654 | 21810 ft | 386 kts | 300° |
| 2026-05-06 15:47 | 50.10104 | 7.15104 | 21810 ft | 386 kts | 300° |
| 2026-05-06 15:47 | 50.11521 | 7.11554 | 21808 ft | 384 kts | 300° |
| 2026-05-06 15:47 | 50.12904 | 7.08090 | 21711 ft | 370 kts | 300° |
| 2026-05-06 15:48 | 50.14245 | 7.04738 | 21505 ft | 359 kts | 300° |
| 2026-05-06 15:48 | 50.15555 | 7.01453 | 21123 ft | 355 kts | 300° |
| 2026-05-06 15:48 | 50.16849 | 6.98198 | 20725 ft | 352 kts | 299° |
| 2026-05-06 15:48 | 50.18137 | 6.94947 | 20328 ft | 350 kts | 299° |
| 2026-05-06 15:49 | 50.19416 | 6.91717 | 19960 ft | 349 kts | 299° |
| 2026-05-06 15:49 | 50.20689 | 6.88501 | 19618 ft | 347 kts | 299° |
| 2026-05-06 15:49 | 50.21952 | 6.85302 | 19303 ft | 344 kts | 298° |
| 2026-05-06 15:49 | 50.23205 | 6.82128 | 18919 ft | 342 kts | 298° |
| 2026-05-06 15:50 | 50.24450 | 6.78972 | 18509 ft | 340 kts | 298° |
| 2026-05-06 15:50 | 50.25686 | 6.75837 | 18091 ft | 338 kts | 298° |
| 2026-05-06 15:50 | 50.26915 | 6.72715 | 17652 ft | 336 kts | 299° |
| 2026-05-06 15:50 | 50.28134 | 6.69613 | 17232 ft | 334 kts | 299° |
| 2026-05-06 15:51 | 50.29327 | 6.66574 | 16828 ft | 331 kts | 299° |
| 2026-05-06 15:51 | 50.30529 | 6.63512 | 16439 ft | 328 kts | 299° |
| 2026-05-06 15:51 | 50.31717 | 6.60482 | 16046 ft | 326 kts | 299° |
| 2026-05-06 15:51 | 50.32896 | 6.57469 | 15670 ft | 324 kts | 299° |
| 2026-05-06 15:52 | 50.34070 | 6.54473 | 15303 ft | 321 kts | 299° |
| 2026-05-06 15:52 | 50.35230 | 6.51500 | 14967 ft | 319 kts | 299° |
| 2026-05-06 15:52 | 50.36383 | 6.48542 | 14622 ft | 317 kts | 299° |
| 2026-05-06 15:52 | 50.37533 | 6.45592 | 14300 ft | 315 kts | 300° |
| 2026-05-06 15:53 | 50.38670 | 6.42669 | 13953 ft | 312 kts | 300° |
| 2026-05-06 15:53 | 50.39794 | 6.39770 | 13594 ft | 310 kts | 300° |
| 2026-05-06 15:53 | 50.40910 | 6.36886 | 13182 ft | 308 kts | 300° |
| 2026-05-06 15:53 | 50.42017 | 6.34021 | 12772 ft | 306 kts | 300° |
| 2026-05-06 15:54 | 50.43117 | 6.31177 | 12378 ft | 304 kts | 300° |
| 2026-05-06 15:54 | 50.44211 | 6.28352 | 11989 ft | 302 kts | 301° |
| 2026-05-06 15:54 | 50.45300 | 6.25539 | 11586 ft | 301 kts | 301° |
| 2026-05-06 15:54 | 50.46367 | 6.22782 | 11188 ft | 299 kts | 301° |
| 2026-05-06 15:55 | 50.47443 | 6.19996 | 10879 ft | 296 kts | 301° |
| 2026-05-06 15:55 | 50.48508 | 6.17228 | 10859 ft | 296 kts | 301° |
| 2026-05-06 15:55 | 50.49574 | 6.14451 | 10858 ft | 298 kts | 302° |
| 2026-05-06 15:55 | 50.50643 | 6.11664 | 10876 ft | 298 kts | 302° |
| 2026-05-06 15:56 | 50.51713 | 6.08876 | 10875 ft | 298 kts | 302° |
| 2026-05-06 15:56 | 50.52787 | 6.06077 | 10875 ft | 298 kts | 302° |
| 2026-05-06 15:56 | 50.53855 | 6.03287 | 10863 ft | 299 kts | 302° |
| 2026-05-06 15:56 | 50.54933 | 6.00473 | 10870 ft | 301 kts | 302° |
| 2026-05-06 15:57 | 50.56015 | 5.97650 | 10869 ft | 301 kts | 302° |
| 2026-05-06 15:57 | 50.57100 | 5.94814 | 10892 ft | 302 kts | 302° |
| 2026-05-06 15:57 | 50.58179 | 5.91986 | 10889 ft | 302 kts | 302° |
| 2026-05-06 15:57 | 50.59256 | 5.89158 | 10883 ft | 302 kts | 302° |
| 2026-05-06 15:58 | 50.59971 | 5.87279 | 10886 ft | 302 kts | 302° |
| 2026-05-06 15:58 | 50.61051 | 5.84441 | 10881 ft | 302 kts | 302° |
| 2026-05-06 15:58 | 50.62128 | 5.81604 | 10887 ft | 302 kts | 302° |
| 2026-05-06 15:58 | 50.63207 | 5.78757 | 10885 ft | 302 kts | 302° |
| 2026-05-06 15:59 | 50.64285 | 5.75917 | 10891 ft | 302 kts | 302° |
| 2026-05-06 15:59 | 50.65363 | 5.73070 | 10892 ft | 302 kts | 302° |
| 2026-05-06 15:59 | 50.66439 | 5.70226 | 10889 ft | 303 kts | 302° |
| 2026-05-06 15:59 | 50.67510 | 5.67393 | 10686 ft | 300 kts | 302° |
| 2026-05-06 16:00 | 50.68567 | 5.64602 | 10275 ft | 299 kts | 302° |
| 2026-05-06 16:00 | 50.69644 | 5.61758 | 9870 ft | 297 kts | 302° |
| 2026-05-06 16:00 | 50.70672 | 5.59032 | 9723 ft | 287 kts | 301° |
| 2026-05-06 16:00 | 50.71674 | 5.56362 | 9452 ft | 281 kts | 301° |
| 2026-05-06 16:01 | 50.72665 | 5.53723 | 9096 ft | 278 kts | 301° |
| 2026-05-06 16:01 | 50.73659 | 5.51077 | 8719 ft | 276 kts | 302° |
| 2026-05-06 16:01 | 50.74624 | 5.48511 | 8352 ft | 274 kts | 302° |
| 2026-05-06 16:01 | 50.75601 | 5.45902 | 7967 ft | 272 kts | 302° |
| 2026-05-06 16:02 | 50.76558 | 5.43337 | 7576 ft | 270 kts | 302° |
| 2026-05-06 16:02 | 50.77495 | 5.40827 | 7196 ft | 268 kts | 302° |
| 2026-05-06 16:02 | 50.78440 | 5.38298 | 6828 ft | 266 kts | 302° |
| 2026-05-06 16:02 | 50.79376 | 5.35786 | 6454 ft | 264 kts | 302° |
| 2026-05-06 16:03 | 50.80307 | 5.33287 | 6066 ft | 262 kts | 302° |
| 2026-05-06 16:03 | 50.81227 | 5.30821 | 5889 ft | 259 kts | 302° |
| 2026-05-06 16:03 | 50.82145 | 5.28359 | 5892 ft | 260 kts | 302° |
| 2026-05-06 16:03 | 50.83067 | 5.25885 | 5890 ft | 261 kts | 302° |
| 2026-05-06 16:04 | 50.83984 | 5.23411 | 5888 ft | 261 kts | 302° |
| 2026-05-06 16:04 | 50.84901 | 5.20934 | 5888 ft | 261 kts | 302° |
| 2026-05-06 16:04 | 50.85818 | 5.18450 | 5888 ft | 261 kts | 302° |
| 2026-05-06 16:04 | 50.86736 | 5.15963 | 5881 ft | 261 kts | 302° |
| 2026-05-06 16:05 | 50.87650 | 5.13489 | 5887 ft | 260 kts | 302° |
| 2026-05-06 16:05 | 50.88465 | 5.10938 | 5888 ft | 260 kts | 295° |
| 2026-05-06 16:05 | 50.89142 | 5.08281 | 5886 ft | 261 kts | 292° |
| 2026-05-06 16:05 | 50.89785 | 5.05595 | 5702 ft | 258 kts | 292° |
| 2026-05-06 16:06 | 50.90410 | 5.02930 | 5245 ft | 258 kts | 292° |
| 2026-05-06 16:06 | 50.91033 | 5.00266 | 4808 ft | 257 kts | 292° |
| 2026-05-06 16:06 | 50.91655 | 4.97614 | 4411 ft | 258 kts | 292° |
| 2026-05-06 16:06 | 50.92278 | 4.94971 | 4129 ft | 251 kts | 292° |
| 2026-05-06 16:07 | 50.92877 | 4.92435 | 3812 ft | 248 kts | 292° |
| 2026-05-06 16:07 | 50.93472 | 4.89922 | 3641 ft | 238 kts | 293° |
| 2026-05-06 16:07 | 50.94038 | 4.87518 | 3478 ft | 227 kts | 293° |
| 2026-05-06 16:07 | 50.94588 | 4.85190 | 3184 ft | 225 kts | 293° |
| 2026-05-06 16:08 | 50.95132 | 4.82885 | 3000 ft | 222 kts | 294° |
| 2026-05-06 16:08 | 50.95658 | 4.80572 | 2998 ft | 224 kts | 287° |
| 2026-05-06 16:08 | 50.95734 | 4.78087 | 2996 ft | 230 kts | 261° |
| 2026-05-06 16:08 | 50.95256 | 4.75721 | 2996 ft | 221 kts | 252° |
| 2026-05-06 16:09 | 50.94725 | 4.73412 | 2932 ft | 223 kts | 253° |
| 2026-05-06 16:09 | 50.94200 | 4.71119 | 2678 ft | 220 kts | 253° |
| 2026-05-06 16:09 | 50.93682 | 4.68852 | 2389 ft | 218 kts | 253° |
| 2026-05-06 16:09 | 50.93167 | 4.66595 | 2097 ft | 216 kts | 254° |
| 2026-05-06 16:10 | 50.92668 | 4.64425 | 1815 ft | 204 kts | 254° |
| 2026-05-06 16:10 | 50.92192 | 4.62345 | 1548 ft | 197 kts | 254° |
| 2026-05-06 16:10 | 50.91739 | 4.60372 | 1296 ft | 186 kts | 253° |
| 2026-05-06 16:10 | 50.91306 | 4.58486 | 1013 ft | 177 kts | 254° |
| 2026-05-06 16:11 | 50.90898 | 4.56705 | 795 ft | 164 kts | 251° |
| 2026-05-06 16:11 | 50.90525 | 4.55081 | 595 ft | 153 kts | 252° |
| 2026-05-06 16:11 | 50.90166 | 4.53517 | 346 ft | 149 kts | 252° |
| 2026-05-06 16:11 | 50.89814 | 4.51980 | 179 ft | 144 kts | 252° |
| 2026-05-06 16:12 | 50.89518 | 4.50687 | 175 ft | 102 kts | 250° |
| 2026-05-06 16:12 | 50.89342 | 4.49931 | 177 ft | 42 kts | 249° |
| 2026-05-06 16:12 | 50.89257 | 4.49566 | 176 ft | 24 kts | 249° |
| 2026-05-06 16:12 | 50.89228 | 4.49310 | 175 ft | 22 kts | 290° |
| 2026-05-06 16:13 | 50.89302 | 4.49168 | 169 ft | 15 kts | 311° |
| 2026-05-06 16:13 | 50.89314 | 4.49147 | 168 ft | 0 kts | 311° |
| 2026-05-06 16:14 | 50.89324 | 4.49130 | 167 ft | 5 kts | 317° |
| 2026-05-06 16:14 | 50.89359 | 4.49108 | 166 ft | 7 kts | 353° |
| 2026-05-06 16:14 | 50.89422 | 4.49131 | 163 ft | 12 kts | 14° |
| 2026-05-06 16:14 | 50.89518 | 4.49169 | 159 ft | 17 kts | 14° |
| 2026-05-06 16:15 | 50.89624 | 4.49243 | 154 ft | 17 kts | 28° |
| 2026-05-06 16:15 | 50.89759 | 4.49308 | 146 ft | 23 kts | 14° |
| 2026-05-06 16:15 | 50.89927 | 4.49378 | 135 ft | 26 kts | 14° |
| 2026-05-06 16:15 | 50.90116 | 4.49452 | 130 ft | 28 kts | 14° |
| 2026-05-06 16:16 | 50.90295 | 4.49529 | 122 ft | 15 kts | 12° |
| 2026-05-06 16:16 | 50.90398 | 4.49568 | 124 ft | 16 kts | 15° |
| 2026-05-06 16:16 | 50.90450 | 4.49487 | 122 ft | 13 kts | 249° |
| 2026-05-06 16:16 | 50.90414 | 4.49366 | 121 ft | 11 kts | 245° |
| 2026-05-06 16:17 | 50.90384 | 4.49259 | 122 ft | 10 kts | 245° |
| 2026-05-06 16:17 | 50.90357 | 4.49167 | 123 ft | 9 kts | 245° |
| 2026-05-06 16:17 | 50.90332 | 4.49083 | 122 ft | 8 kts | 244° |
| 2026-05-06 16:17 | 50.90309 | 4.49003 | 124 ft | 10 kts | 246° |
| 2026-05-06 16:18 | 50.90281 | 4.48902 | 123 ft | 10 kts | 246° |
| 2026-05-06 16:18 | 50.90254 | 4.48809 | 122 ft | 9 kts | 245° |
| 2026-05-06 16:18 | 50.90231 | 4.48727 | 123 ft | 8 kts | 245° |
| 2026-05-06 16:18 | 50.90210 | 4.48656 | 122 ft | 6 kts | 245° |
| 2026-05-06 16:19 | 50.90214 | 4.48619 | 123 ft | 2 kts | 309° |
| 2026-05-06 16:19 | 50.90234 | 4.48606 | 119 ft | 4 kts | 337° |
| 2026-05-06 16:19 | 50.90260 | 4.48587 | 121 ft | 3 kts | 335° |
| 2026-05-06 16:19 | 50.90275 | 4.48576 | 119 ft | 2 kts | 335° |
| 2026-05-06 16:20 | 50.90278 | 4.48574 | 119 ft | 0 kts | 335° |